Charlotte, NC (28236)

11:39 PM EDT on June 01, 2015 (GMT -0400)
Runnymeade | | Change Station
CLOSE
Current Station
Personal Weather Station
Location: Mount Holly, NC
Elevation: 623 ft
Nearby Weather Stations

Elev 623 ft 35.31 °N, 81.02 °W | Updated 51 seconds ago

Overcast
Overcast
70.7 °F
Feels Like 71 °F
N
0.0
Wind Variable Wind from NW
Gusts 0.0 mph

Today
High -- | Low -- °F
--% Chance of Precip.
Yesterday
High -- | Low -- °F
Precip. -- in
6:10 AM 8:33 PM
Full, 100% visible
Pressure 30.03 in
Visibility 10.0 miles
Clouds Few 4500 ft
Mostly Cloudy 10000 ft
Mostly Cloudy 25000 ft
Heat Index 71 °F
Dew Point 65 °F
Humidity 81%
Rainfall 0.02 in
Snow Depth Not available.
UV 0 out of 12
Pollen 5.20 out of 12
Air Quality Not available.
Flu Activity No Activity
METAR KCLT 020252Z 28006KT 10SM FEW045 BKN100 BKN250 23/17 A3006 RMK AO2 SLP168 T02330167 53017 $

More Conditions Fewer Conditions

Pressure 30.03 in
Visibility 10.0 miles
Clouds Few 4500 ft
Mostly Cloudy 10000 ft
Mostly Cloudy 25000 ft
Heat Index 71 °F
Dew Point 65 °F
Humidity 81%
Rainfall 0.02 in
Snow Depth Not available.
UV 0 out of 12
Pollen 5.20 out of 12
Air Quality Not available.
Flu Activity No Activity
METAR KCLT 020252Z 28006KT 10SM FEW045 BKN100 BKN250 23/17 A3006 RMK AO2 SLP168 T02330167 53017 $

More Conditions Fewer Conditions

10-Day Weather Forecast

Almanac

Astronomy

Jun. 01, 2015 Rise Set
Actual Time
Civil Twilight
Nautical Twilight
Astronomical Twilight
Moon
Length of Visible Light
Length of Day
Tomorrow will be .
, % of the Moon is Illuminated

Today's Extremes

State Highs State Lows

Community

WunderPhotos

Upload Photos

1,825,879 photos uploaded!

WunderBlogs® & News

Nearby

Air Quality

  Air Quality AQ Index Pollutant
Not available.

Snow Depth

Station Depth Elevation

Earthquake Activity

City Distance Mag. Time & Date
Minimum magnitude displayed is 2.5.

Coastal Water Temperatures

Place Temperature

Stations

Nearby Weather Stations

Station Location Temp. Windchill Dew Point Humidity Wind Precip. Elev Updated Type